• Join FlightAware (Why Join?)
  • Login
  • US Flag 
12:00PM EDT


 

Airport Tracker/Info


-or-


 

Live Flight TrackerFlight Track Log ✈ CTL22 ✈ 02-May-2013 ✈ KBKL - KGRR

Flight Track Log - Related Links

Times and Time Zones

All times are in EDT time to prevent confusion due to time zone crossing. See the CTL22 flight status page for this flight to view local times or setup timezone preferences in your user account.

Time Position Orientation Groundspeed Altitude Reporting Facility
EDT Latitude Longitude Course Direction KTS MPH feet Rate Location/Type
09:28PM 41.5728 -81.7183 329° Northwest 160 184 2,400  Level Cleveland Center
09:29PM 41.5931 -81.7686 298° West 150 173 3,600 960 Climbing Cleveland Center
09:30PM 41.6178 -81.8219 302° West 165 190 4,400 720 Climbing Cleveland Center
09:31PM 41.6297 -81.8500 300° West 165 190 4,800 780 Climbing Cleveland Center
09:31PM 41.6422 -81.8725 307° West 163 188 5,200 660 Climbing Cleveland Center
09:32PM 41.6522 -81.9031 294° West 165 190 5,500 540 Climbing Cleveland Center
09:32PM 41.6622 -81.9256 301° West 160 184 5,800 240 Climbing Cleveland Center
09:33PM 41.6889 -81.9789 304° West 171 197 5,900 60 Climbing Cleveland Center
09:34PM 41.7153 -82.0325 303° West 177 204 6,000  Climbing Cleveland Center
09:35PM 41.7436 -82.0942 302° West 186 214 6,000  Level Cleveland Center
09:36PM 41.7719 -82.1561 302° West 187 215 6,000  Level Cleveland Center
09:37PM 41.7961 -82.2181 298° West 186 214 6,000  Level Cleveland Center
09:38PM 41.8244 -82.2772 303° West 185 213 6,000  Level Cleveland Center
09:39PM 41.8325 -82.2914 307° West 185 213 6,000  Level Cleveland Center
09:40PM 41.8669 -82.3650 302° West 187 215 6,000  Level Cleveland Center
09:41PM 41.8889 -82.4214 298° West 186 214 6,000  Level Cleveland Center
09:41PM 41.9047 -82.4692 294° West 185 213 6,000  Level Cleveland Center
09:43PM 41.9244 -82.5394 291° West 186 214 6,000  Level Cleveland Center
09:44PM 41.9461 -82.6100 292° West 187 215 6,000  Level Cleveland Center
09:45PM 41.9658 -82.6778 301° West 187 215 6,000  Level Cleveland Center
09:46PM 41.9894 -82.7511 293° West 188 216 6,000  Level Cleveland Center
09:47PM 42.0131 -82.8244 293° West 190 219 6,000  Level Cleveland Center
09:47PM 42.0228 -82.8611 290° West 193 222 6,000  Level Cleveland Center
09:49PM 42.0464 -82.9292 295° West 193 222 6,000  Level Cleveland Center
09:50PM 42.0658 -82.9969 291° West 193 222 6,000  Level Cleveland Center
09:51PM 42.0933 -83.0736 296° West 194 223 6,000  Level Cleveland Center
09:52PM 42.1108 -83.1303 293° West 193 222 6,000  Level Cleveland Center
09:53PM 42.1406 -83.2097 297° West 194 223 6,000  Level Cleveland Center
09:54PM 42.1619 -83.2725 295° West 191 220 6,000  Level Cleveland Center
09:55PM 42.1833 -83.3350 295° West 186 214 6,000  Level Cleveland Center
09:56PM 42.2108 -83.4033 299° West 189 217 6,000  Level Cleveland Center
09:57PM 42.2244 -83.4461 293° West 190 219 6,000  Level Cleveland Center
09:58PM 42.2494 -83.5286 292° West 185 213 6,000  Level Cleveland Center
09:59PM 42.2725 -83.5997 294° West 186 214 6,000  Level Cleveland Center
10:00PM 42.2897 -83.6569 292° West 188 216 6,000  Level Cleveland Center
10:01PM 42.3089 -83.7222 292° West 186 214 6,100  Climbing Cleveland Center
10:02PM 42.3281 -83.7822 293° West 186 214 6,100  Level Cleveland Center
10:03PM 42.3594 -83.8569 300° West 188 216 6,100 -60 Level Cleveland Center
10:05PM 42.3893 -83.9531 293° West  Level FlightAware Approximate
10:12PM 42.5244 -84.3665 295° West  Level FlightAware Approximate
10:12PM 42.5464 -84.4197 295° West 188 216 6,000  Level Chicago Center
10:13PM 42.5445 -84.4252 295° West  Level FlightAware Approximate
10:13PM 42.5742 -84.4817 301° West 191 220 6,000  Level Chicago Center
10:14PM 42.5645 -84.4839 295° West  Level FlightAware Approximate
10:14PM 42.5953 -84.5478 293° West 193 222 6,000  Level Chicago Center
10:15PM 42.5846 -84.5427 295° West  Level FlightAware Approximate
10:15PM 42.6142 -84.6133 291° West 188 216 6,000  Level Chicago Center
10:16PM 42.6045 -84.6014 295° West  Level FlightAware Approximate
10:16PM 42.6344 -84.6783 293° West 188 216 6,000  Level Chicago Center
10:17PM 42.6245 -84.6603 295° West  Level FlightAware Approximate
10:17PM 42.6553 -84.7431 294° West 188 216 6,000  Level Chicago Center
10:18PM 42.6744 -84.8064 292° West 184 212 6,000  Level Chicago Center
10:19PM 42.6944 -84.8706 293° West 184 212 6,100  Climbing Chicago Center
10:20PM 42.7194 -84.9486 294° West 188 216 6,000 -60 Descending Chicago Center
10:21PM 42.7400 -85.0133 293° West 187 215 6,000  Level Chicago Center
10:22PM 42.7600 -85.0756 294° West 182 209 6,000  Level Chicago Center
10:23PM 42.7786 -85.1414 291° West 186 214 6,100 -180 Climbing Chicago Center
10:24PM 42.8003 -85.2061 295° West 187 215 5,700 -780 Descending Chicago Center
10:25PM 42.8242 -85.2769 295° West 200 230 4,600 -1,140 Descending Chicago Center
10:26PM 42.8464 -85.3514 292° West 211 243 3,400 -1,260 Descending Chicago Center
10:27PM 42.8692 -85.4389 290° West 207 238 2,100 -1,080 Descending Chicago Center
10:28PM 42.8817 -85.4972 286° West 182 209 1,200 -600 Descending Chicago Center
10:29PM 42.8689 -85.5331 244° Southwest 167 192 900 -300 Descending Chicago Center
10:31PM 42.8667 -85.5167 270° West  Level FlightAware Approximate